createdAt,value
2018-11-07T00:00:52.072Z,98899.00
2018-11-07T00:03:22.334Z,98897.00
2018-11-07T00:05:52.583Z,98895.00
2018-11-07T00:08:23.000Z,98895.00
2018-11-07T00:10:53.114Z,98896.00
2018-11-07T00:13:23.427Z,98896.00
2018-11-07T00:15:53.693Z,98897.00
2018-11-07T00:18:23.979Z,98904.00
2018-11-07T00:20:54.256Z,98901.00
2018-11-07T00:23:24.547Z,98900.00
2018-11-07T00:25:54.784Z,98906.00
2018-11-07T00:28:25.085Z,98905.00
2018-11-07T00:30:55.362Z,98900.00
2018-11-07T00:33:25.674Z,98902.00
2018-11-07T00:35:55.950Z,98902.00
2018-11-07T00:38:26.236Z,98900.00
2018-11-07T00:40:56.528Z,98895.00
2018-11-07T00:43:26.819Z,98897.00
2018-11-07T00:45:57.106Z,98897.00
2018-11-07T00:48:27.390Z,98909.00
2018-11-07T00:50:57.657Z,98911.00
2018-11-07T00:53:27.962Z,98907.00
2018-11-07T00:55:58.242Z,98903.00
2018-11-07T00:58:28.531Z,98905.00
2018-11-07T01:00:58.807Z,98908.00
2018-11-07T01:03:29.110Z,98903.00
2018-11-07T01:05:59.375Z,98904.00
2018-11-07T01:08:29.669Z,98898.00
2018-11-07T01:10:59.951Z,98903.00
2018-11-07T01:13:30.236Z,98898.00
2018-11-07T01:16:00.462Z,98895.00
2018-11-07T01:18:30.735Z,98896.00
2018-11-07T01:21:00.966Z,98901.00
2018-11-07T01:23:31.226Z,98905.00
2018-11-07T01:26:01.462Z,98909.00
2018-11-07T01:28:31.751Z,98918.00
2018-11-07T01:31:02.000Z,98916.00
2018-11-07T01:33:32.269Z,98917.00
2018-11-07T01:36:02.506Z,98919.00
2018-11-07T01:38:37.941Z,98923.00
2018-11-07T01:41:08.175Z,98922.00
2018-11-07T01:43:38.437Z,98921.00
2018-11-07T01:46:08.683Z,98915.00
2018-11-07T01:48:38.957Z,98915.00
2018-11-07T01:51:09.202Z,98911.00
2018-11-07T01:53:39.463Z,98914.00
2018-11-07T01:56:09.714Z,98913.00
2018-11-07T01:58:40.209Z,98911.00
2018-11-07T02:01:10.463Z,98902.00
2018-11-07T02:03:40.705Z,98902.00
2018-11-07T02:06:10.978Z,98895.00
2018-11-07T02:08:41.222Z,98893.00
2018-11-07T02:11:11.478Z,98897.00
2018-11-07T02:13:41.734Z,98898.00
2018-11-07T02:16:11.989Z,98896.00
2018-11-07T02:18:42.265Z,98888.00
2018-11-07T02:21:12.614Z,98883.00
2018-11-07T02:23:42.846Z,98875.00
2018-11-07T02:26:13.197Z,98875.00
2018-11-07T02:28:43.389Z,98873.00
2018-11-07T02:31:13.666Z,98884.00
2018-11-07T02:33:43.904Z,98883.00
2018-11-07T02:36:14.185Z,98887.00
2018-11-07T02:38:44.503Z,98881.00
2018-11-07T02:41:14.770Z,98881.00
2018-11-07T02:43:45.099Z,98887.00
2018-11-07T02:46:15.366Z,98891.00
2018-11-07T02:48:45.636Z,98882.00
2018-11-07T02:51:15.895Z,98878.00
2018-11-07T02:53:46.131Z,98879.00
2018-11-07T02:56:16.385Z,98880.00
2018-11-07T02:58:46.638Z,98886.00
2018-11-07T03:01:16.904Z,98893.00
2018-11-07T03:03:47.154Z,98895.00
2018-11-07T03:06:17.385Z,98896.00
2018-11-07T03:08:47.629Z,98895.00
2018-11-07T03:11:17.859Z,98894.00
2018-11-07T03:13:48.114Z,98897.00
2018-11-07T03:16:18.767Z,98899.00
2018-11-07T03:18:49.005Z,98905.00
2018-11-07T03:21:19.257Z,98900.00
2018-11-07T03:23:49.469Z,98906.00
2018-11-07T03:26:19.727Z,98910.00
2018-11-07T03:28:49.955Z,98910.00
2018-11-07T03:31:20.211Z,98911.00
2018-11-07T03:33:50.438Z,98907.00
2018-11-07T03:36:20.682Z,98903.00
2018-11-07T03:38:50.918Z,98906.00
2018-11-07T03:41:21.171Z,98910.00
2018-11-07T03:43:51.463Z,98908.00
2018-11-07T03:46:21.807Z,98907.00
2018-11-07T03:48:52.047Z,98916.00
2018-11-07T03:51:22.304Z,98915.00
2018-11-07T03:53:52.538Z,98901.00
2018-11-07T03:56:22.787Z,98900.00
2018-11-07T03:58:53.015Z,98907.00
2018-11-07T04:01:23.268Z,98901.00
2018-11-07T04:03:53.489Z,98890.00
2018-11-07T04:06:23.871Z,98891.00
2018-11-07T04:08:54.089Z,98879.00
2018-11-07T04:11:24.352Z,98884.00
2018-11-07T04:13:54.639Z,98875.00
2018-11-07T04:16:24.921Z,98875.00
2018-11-07T04:18:55.189Z,98869.00
2018-11-07T04:21:25.519Z,98871.00
2018-11-07T04:24:02.244Z,98874.00
2018-11-07T04:26:33.913Z,98871.00
2018-11-07T04:29:04.413Z,98876.00
2018-11-07T04:31:34.695Z,98881.00
2018-11-07T04:34:04.959Z,98886.00
2018-11-07T04:36:35.262Z,98878.00
2018-11-07T04:39:08.922Z,98883.00
2018-11-07T04:41:39.180Z,98882.00
2018-11-07T04:44:09.811Z,98883.00
2018-11-07T04:46:40.095Z,98883.00
2018-11-07T04:49:10.367Z,98888.00
2018-11-07T04:51:40.654Z,98896.00
2018-11-07T04:54:10.918Z,98898.00
2018-11-07T04:56:41.219Z,98899.00
2018-11-07T04:59:11.480Z,98898.00
2018-11-07T05:01:41.783Z,98889.00
2018-11-07T05:04:12.011Z,98897.00
2018-11-07T05:06:42.391Z,98894.00
2018-11-07T05:09:12.702Z,98902.00
2018-11-07T05:11:43.006Z,98904.00
2018-11-07T05:14:13.278Z,98903.00
2018-11-07T05:16:43.508Z,98907.00
2018-11-07T05:19:13.950Z,98908.00
2018-11-07T05:21:44.179Z,98901.00
2018-11-07T05:24:14.475Z,98903.00
2018-11-07T05:26:44.706Z,98909.00
2018-11-07T05:29:14.964Z,98909.00
2018-11-07T05:31:45.241Z,98914.00
2018-11-07T05:34:15.603Z,98913.00
2018-11-07T05:36:45.827Z,98910.00
2018-11-07T05:39:16.099Z,98905.00
2018-11-07T05:41:46.329Z,98914.00
2018-11-07T05:44:16.588Z,98913.00
2018-11-07T05:46:46.831Z,98922.00
2018-11-07T05:49:17.094Z,98927.00
2018-11-07T05:51:47.351Z,98920.00
2018-11-07T05:54:17.597Z,98925.00
2018-11-07T05:56:47.826Z,98929.00
2018-11-07T05:59:18.077Z,98929.00
2018-11-07T06:01:48.309Z,98927.00
2018-11-07T06:04:18.625Z,98936.00
2018-11-07T06:06:48.851Z,98934.00
2018-11-07T06:09:19.122Z,98941.00
2018-11-07T06:11:49.346Z,98934.00
2018-11-07T06:14:19.643Z,98942.00
2018-11-07T06:16:49.899Z,98942.00
2018-11-07T06:19:20.263Z,98949.00
2018-11-07T06:21:50.522Z,98945.00
2018-11-07T06:24:20.844Z,98952.00
2018-11-07T06:26:51.131Z,98949.00
2018-11-07T06:29:21.409Z,98947.00
2018-11-07T06:31:51.675Z,98945.00
2018-11-07T06:34:21.964Z,98949.00
2018-11-07T06:36:52.242Z,98955.00
2018-11-07T06:39:22.518Z,98955.00
2018-11-07T06:41:52.784Z,98964.00
2018-11-07T06:44:23.112Z,98955.00
2018-11-07T06:46:53.347Z,98960.00
2018-11-07T06:49:23.656Z,98962.00
2018-11-07T06:51:53.900Z,98958.00
2018-11-07T06:54:24.213Z,98958.00
2018-11-07T06:56:54.539Z,98957.00
2018-11-07T06:59:24.793Z,98961.00
2018-11-07T07:01:55.027Z,98960.00
2018-11-07T07:04:25.276Z,98959.00
2018-11-07T07:06:55.501Z,98960.00
2018-11-07T07:09:25.754Z,98958.00
2018-11-07T07:11:55.974Z,98956.00
2018-11-07T07:14:26.258Z,98947.00
2018-11-07T07:16:56.751Z,98950.00
2018-11-07T07:19:27.022Z,98952.00
2018-11-07T07:21:57.247Z,98953.00
2018-11-07T07:24:27.810Z,98946.00
2018-11-07T07:26:58.443Z,98946.00
2018-11-07T07:29:28.702Z,98948.00
2018-11-07T07:31:58.943Z,98948.00
2018-11-07T07:34:29.214Z,98950.00
2018-11-07T07:36:59.430Z,98949.00
2018-11-07T07:39:29.687Z,98951.00
2018-11-07T07:41:59.945Z,98948.00
2018-11-07T07:44:30.185Z,98947.00
2018-11-07T07:47:00.439Z,98948.00
2018-11-07T07:49:30.812Z,98944.00
2018-11-07T07:52:01.125Z,98951.00
2018-11-07T07:54:31.377Z,98946.00
2018-11-07T07:57:01.646Z,98946.00
2018-11-07T07:59:31.992Z,98948.00
2018-11-07T08:02:03.373Z,98945.00
2018-11-07T08:04:33.607Z,98945.00
2018-11-07T08:07:03.918Z,98950.00
2018-11-07T08:09:34.086Z,98955.00
2018-11-07T08:12:04.337Z,98947.00
2018-11-07T08:14:34.615Z,98954.00
2018-11-07T08:17:04.900Z,98953.00
2018-11-07T08:19:35.138Z,98953.00
2018-11-07T08:22:05.799Z,98953.00
2018-11-07T08:24:36.026Z,98955.00
2018-11-07T08:27:06.382Z,98952.00
2018-11-07T08:29:36.595Z,98954.00
2018-11-07T08:32:06.900Z,98951.00
2018-11-07T08:34:37.133Z,98946.00
2018-11-07T08:37:07.390Z,98944.00
2018-11-07T08:39:37.637Z,98943.00
2018-11-07T08:42:08.531Z,98942.00
2018-11-07T08:44:38.746Z,98943.00
2018-11-07T08:47:09.428Z,98937.00
2018-11-07T08:49:39.655Z,98935.00
2018-11-07T08:52:09.906Z,98938.00
2018-11-07T08:54:40.139Z,98938.00
2018-11-07T08:57:10.399Z,98936.00
2018-11-07T08:59:40.625Z,98934.00
2018-11-07T09:02:10.995Z,98937.00
2018-11-07T09:04:41.137Z,98929.00
2018-11-07T09:07:11.382Z,98930.00
2018-11-07T09:09:41.607Z,98930.00
2018-11-07T09:12:11.912Z,98933.00
2018-11-07T09:14:42.114Z,98932.00
2018-11-07T09:17:12.403Z,98937.00
2018-11-07T09:19:42.664Z,98942.00
2018-11-07T09:22:13.170Z,98947.00
2018-11-07T09:24:43.432Z,98944.00
2018-11-07T09:27:13.700Z,98947.00
2018-11-07T09:29:43.946Z,98949.00
2018-11-07T09:32:14.221Z,98949.00
2018-11-07T09:34:44.487Z,98947.00
2018-11-07T09:37:14.766Z,98939.00
2018-11-07T09:39:46.094Z,98940.00
2018-11-07T09:42:16.289Z,98938.00
2018-11-07T09:44:46.546Z,98934.00
2018-11-07T09:47:16.848Z,98930.00
2018-11-07T09:49:47.076Z,98932.00
2018-11-07T09:52:17.337Z,98930.00
2018-11-07T09:54:47.617Z,98933.00
2018-11-07T09:57:17.892Z,98930.00
2018-11-07T09:59:48.147Z,98930.00
2018-11-07T10:02:18.413Z,98931.00
2018-11-07T10:04:48.661Z,98934.00
2018-11-07T10:07:18.939Z,98925.00
2018-11-07T10:09:49.194Z,98923.00
2018-11-07T10:12:19.512Z,98921.00
2018-11-07T10:14:49.745Z,98915.00
2018-11-07T10:17:20.031Z,98914.00
2018-11-07T10:19:50.319Z,98910.00
2018-11-07T10:22:20.605Z,98910.00
2018-11-07T10:24:50.866Z,98912.00
2018-11-07T10:27:21.373Z,98909.00
2018-11-07T10:29:51.843Z,98903.00
2018-11-07T10:32:21.710Z,98904.00
2018-11-07T10:34:51.978Z,98903.00
2018-11-07T10:37:32.141Z,98904.00
2018-11-07T10:39:52.580Z,98899.00
2018-11-07T10:42:22.805Z,98901.00
2018-11-07T10:44:53.078Z,98902.00
2018-11-07T10:47:23.376Z,98900.00
2018-11-07T10:49:53.626Z,98897.00
2018-11-07T10:52:23.921Z,98886.00
2018-11-07T10:54:54.206Z,98886.00
2018-11-07T10:57:24.462Z,98882.00
2018-11-07T10:59:54.773Z,98879.00
2018-11-07T11:02:30.334Z,98886.00
2018-11-07T11:05:00.659Z,98883.00
2018-11-07T11:07:30.870Z,98886.00
2018-11-07T11:10:01.156Z,98879.00
2018-11-07T11:12:31.554Z,98878.00
2018-11-07T11:15:01.844Z,98877.00
2018-11-07T11:17:32.312Z,98878.00
2018-11-07T11:20:02.507Z,98871.00
2018-11-07T11:22:32.762Z,98870.00
2018-11-07T11:25:03.046Z,98867.00
2018-11-07T11:27:33.431Z,98870.00
2018-11-07T11:30:03.658Z,98868.00
2018-11-07T11:32:33.940Z,98872.00
2018-11-07T11:35:04.429Z,98869.00
2018-11-07T11:37:34.558Z,98863.00
2018-11-07T11:40:05.879Z,98861.00
2018-11-07T11:42:36.130Z,98866.00
2018-11-07T11:45:08.190Z,98872.00
2018-11-07T11:47:38.736Z,98874.00
2018-11-07T11:50:14.363Z,98871.00
2018-11-07T11:52:45.664Z,98872.00
2018-11-07T11:55:15.962Z,98873.00
2018-11-07T11:57:46.702Z,98878.00
2018-11-07T12:00:18.314Z,98878.00
2018-11-07T12:02:48.896Z,98882.00
2018-11-07T12:05:19.738Z,98874.00
2018-11-07T12:07:49.995Z,98881.00
2018-11-07T12:10:21.633Z,98877.00
2018-11-07T12:12:53.018Z,98874.00
2018-11-07T12:15:24.626Z,98872.00
2018-11-07T12:17:55.234Z,98873.00
2018-11-07T12:20:25.483Z,98869.00
2018-11-07T12:22:55.729Z,98867.00
2018-11-07T12:25:25.966Z,98863.00
2018-11-07T12:27:56.190Z,98861.00
2018-11-07T12:30:26.438Z,98861.00
2018-11-07T12:32:56.671Z,98860.00
2018-11-07T12:35:26.921Z,98862.00
2018-11-07T12:37:57.127Z,98861.00
2018-11-07T12:40:27.379Z,98862.00
2018-11-07T12:42:57.663Z,98862.00
2018-11-07T12:45:27.859Z,98858.00
2018-11-07T12:47:58.070Z,98865.00
2018-11-07T12:50:28.345Z,98866.00
2018-11-07T12:52:58.557Z,98866.00
2018-11-07T12:55:28.806Z,98862.00
2018-11-07T12:57:59.070Z,98860.00
2018-11-07T13:00:29.295Z,98857.00
2018-11-07T13:02:59.590Z,98864.00
2018-11-07T13:05:29.782Z,98864.00
2018-11-07T13:08:00.022Z,98864.00
2018-11-07T13:10:30.274Z,98868.00
2018-11-07T13:13:00.556Z,98868.00
2018-11-07T13:15:31.083Z,98870.00
2018-11-07T13:18:01.347Z,98868.00
2018-11-07T13:20:31.597Z,98867.00
2018-11-07T13:23:01.837Z,98871.00
2018-11-07T13:25:32.087Z,98871.00
2018-11-07T13:28:02.322Z,98877.00
2018-11-07T13:30:32.617Z,98880.00
2018-11-07T13:33:02.842Z,98880.00
2018-11-07T13:35:33.087Z,98880.00
2018-11-07T13:38:03.519Z,98883.00
2018-11-07T13:40:33.574Z,98878.00
2018-11-07T13:43:03.802Z,98884.00
2018-11-07T13:45:34.046Z,98887.00
2018-11-07T13:48:04.266Z,98882.00
2018-11-07T13:50:34.514Z,98886.00
2018-11-07T13:53:05.107Z,98896.00
2018-11-07T13:55:41.975Z,98899.00
2018-11-07T13:58:12.196Z,98902.00
2018-11-07T14:00:42.462Z,98905.00
2018-11-07T14:03:12.691Z,98903.00
2018-11-07T14:05:43.057Z,98907.00
2018-11-07T14:08:13.182Z,98903.00
2018-11-07T14:10:43.429Z,98906.00
2018-11-07T14:13:13.709Z,98910.00
2018-11-07T14:15:44.077Z,98917.00
2018-11-07T14:18:14.283Z,98919.00
2018-11-07T14:20:44.578Z,98914.00
2018-11-07T14:23:14.841Z,98919.00
2018-11-07T14:25:45.138Z,98917.00
2018-11-07T14:28:15.684Z,98917.00
2018-11-07T14:30:45.685Z,98919.00
2018-11-07T14:33:16.043Z,98927.00
2018-11-07T14:35:46.361Z,98931.00
2018-11-07T14:38:16.662Z,98938.00
2018-11-07T14:40:46.994Z,98937.00
2018-11-07T14:43:17.258Z,98936.00
2018-11-07T14:45:47.543Z,98937.00
2018-11-07T14:48:17.798Z,98940.00
2018-11-07T14:50:48.086Z,98948.00
2018-11-07T14:53:18.353Z,98950.00
2018-11-07T14:55:48.643Z,98953.00
2018-11-07T14:58:18.918Z,98956.00
2018-11-07T15:00:49.180Z,98966.00
2018-11-07T15:03:19.438Z,98963.00
2018-11-07T15:05:49.678Z,98968.00
2018-11-07T15:08:20.041Z,98970.00
2018-11-07T15:10:50.275Z,98969.00
2018-11-07T15:13:20.538Z,98967.00
2018-11-07T15:15:50.789Z,98973.00
2018-11-07T15:18:21.047Z,98974.00
2018-11-07T15:20:51.282Z,98975.00
2018-11-07T15:23:21.524Z,98981.00
2018-11-07T15:25:51.752Z,98979.00
2018-11-07T15:28:22.007Z,98985.00
2018-11-07T15:30:52.251Z,98987.00
2018-11-07T15:33:22.498Z,98982.00
2018-11-07T15:35:52.766Z,98988.00
2018-11-07T15:38:22.970Z,98987.00
2018-11-07T15:40:53.206Z,98989.00
2018-11-07T15:43:23.483Z,98988.00
2018-11-07T15:45:53.693Z,98993.00
2018-11-07T15:48:23.935Z,98995.00
2018-11-07T15:50:59.279Z,98994.00
2018-11-07T15:53:29.523Z,98997.00
2018-11-07T15:55:59.750Z,98993.00
2018-11-07T15:58:30.000Z,99000.00
2018-11-07T16:01:00.227Z,99004.00
2018-11-07T16:03:35.613Z,98995.00
2018-11-07T16:06:05.876Z,99006.00
2018-11-07T16:08:36.123Z,99009.00
2018-11-07T16:11:06.557Z,99008.00
2018-11-07T16:13:36.923Z,99005.00
2018-11-07T16:16:07.382Z,99012.00
2018-11-07T16:18:37.674Z,99013.00
2018-11-07T16:21:07.943Z,99022.00
2018-11-07T16:23:38.258Z,99026.00
2018-11-07T16:26:08.515Z,99026.00
2018-11-07T16:28:38.888Z,99033.00
2018-11-07T16:31:09.083Z,99040.00
2018-11-07T16:33:39.379Z,99051.00
2018-11-07T16:36:09.634Z,99049.00
2018-11-07T16:38:39.957Z,99057.00
2018-11-07T16:41:10.333Z,99060.00
2018-11-07T16:43:40.971Z,99068.00
2018-11-07T16:46:11.235Z,99073.00
2018-11-07T16:48:41.575Z,99079.00
2018-11-07T16:51:11.853Z,99081.00
2018-11-07T16:53:42.097Z,99083.00
2018-11-07T16:56:12.494Z,99089.00
2018-11-07T16:58:42.792Z,99096.00
2018-11-07T17:01:13.057Z,99103.00
2018-11-07T17:03:43.398Z,99111.00
2018-11-07T17:06:13.762Z,99114.00
2018-11-07T17:08:44.150Z,99120.00
2018-11-07T17:11:14.421Z,99124.00
2018-11-07T17:13:44.728Z,99131.00
2018-11-07T17:16:14.979Z,99129.00
2018-11-07T17:18:45.233Z,99136.00
2018-11-07T17:21:15.485Z,99140.00
2018-11-07T17:23:45.957Z,99144.00
2018-11-07T17:26:21.452Z,99148.00
2018-11-07T17:28:57.030Z,99153.00
2018-11-07T17:31:27.339Z,99152.00
2018-11-07T17:33:57.727Z,99154.00
2018-11-07T17:36:28.042Z,99166.00
2018-11-07T17:38:58.358Z,99174.00
2018-11-07T17:41:28.658Z,99178.00
2018-11-07T17:43:58.986Z,99177.00
2018-11-07T17:46:29.925Z,99182.00
2018-11-07T17:49:00.677Z,99183.00
2018-11-07T17:51:31.005Z,99190.00
2018-11-07T17:54:01.857Z,99186.00
2018-11-07T17:56:32.265Z,99184.00
2018-11-07T17:59:02.559Z,99176.00
2018-11-07T18:01:32.886Z,99177.00
2018-11-07T18:04:03.195Z,99174.00
2018-11-07T18:06:33.449Z,99175.00
2018-11-07T18:09:04.194Z,99172.00
2018-11-07T18:11:34.465Z,99179.00
2018-11-07T18:14:04.956Z,99188.00
2018-11-07T18:16:35.234Z,99186.00
2018-11-07T18:19:05.788Z,99191.00
2018-11-07T18:21:36.037Z,99196.00
2018-11-07T18:24:06.342Z,99201.00
2018-11-07T18:26:36.615Z,99206.00
2018-11-07T18:29:07.331Z,99207.00
2018-11-07T18:31:37.599Z,99217.00
2018-11-07T18:34:07.840Z,99214.00
2018-11-07T18:36:38.110Z,99203.00
2018-11-07T18:39:11.138Z,99202.00
2018-11-07T18:41:41.423Z,99198.00
2018-11-07T18:44:11.729Z,99210.00
2018-11-07T18:46:42.023Z,99231.00
2018-11-07T18:49:12.502Z,99229.00
2018-11-07T18:51:44.052Z,99229.00
2018-11-07T18:54:14.319Z,99229.00
2018-11-07T18:56:49.823Z,99231.00
2018-11-07T18:59:25.313Z,99238.00
2018-11-07T19:02:00.709Z,99244.00
2018-11-07T19:04:32.207Z,99244.00
2018-11-07T19:07:02.727Z,99244.00
2018-11-07T19:09:33.637Z,99249.00
2018-11-07T19:12:04.864Z,99251.00
2018-11-07T19:14:35.706Z,99254.00
2018-11-07T19:17:07.083Z,99253.00
2018-11-07T19:19:37.831Z,99261.00
2018-11-07T19:22:09.310Z,99263.00
2018-11-07T19:24:41.126Z,99260.00
2018-11-07T19:27:11.695Z,99262.00
2018-11-07T19:29:41.968Z,99263.00
2018-11-07T19:32:12.458Z,99264.00
2018-11-07T19:34:42.760Z,99262.00
2018-11-07T19:37:13.217Z,99265.00
2018-11-07T19:39:43.556Z,99263.00
2018-11-07T19:42:13.942Z,99266.00
2018-11-07T19:44:44.332Z,99273.00
2018-11-07T19:47:14.925Z,99271.00
2018-11-07T19:49:45.314Z,99276.00
2018-11-07T19:52:15.777Z,99278.00
2018-11-07T19:54:48.239Z,99278.00
2018-11-07T19:57:18.788Z,99281.00
2018-11-07T19:59:49.468Z,99284.00
2018-11-07T20:02:20.179Z,99281.00
2018-11-07T20:04:50.961Z,99285.00
2018-11-07T20:07:27.462Z,99291.00
2018-11-07T20:09:57.839Z,99301.00
2018-11-07T20:12:28.281Z,99312.00
2018-11-07T20:14:59.144Z,99310.00
2018-11-07T20:17:30.315Z,99311.00
2018-11-07T20:20:01.275Z,99308.00
2018-11-07T20:22:32.073Z,99311.00
2018-11-07T20:25:02.428Z,99313.00
2018-11-07T20:27:32.874Z,99313.00
2018-11-07T20:30:03.338Z,99322.00
2018-11-07T20:32:36.207Z,99327.00
2018-11-07T20:35:08.997Z,99336.00
2018-11-07T20:37:39.319Z,99346.00
2018-11-07T20:40:12.779Z,99346.00
2018-11-07T20:42:43.990Z,99349.00
2018-11-07T20:45:15.619Z,99353.00
2018-11-07T20:47:46.078Z,99351.00
2018-11-07T20:50:18.010Z,99354.00
2018-11-07T20:52:48.879Z,99355.00
2018-11-07T20:55:20.590Z,99357.00
2018-11-07T20:57:51.049Z,99355.00
2018-11-07T21:00:23.011Z,99355.00
2018-11-07T21:02:53.321Z,99353.00
2018-11-07T21:05:23.923Z,99353.00
2018-11-07T21:07:54.384Z,99349.00
2018-11-07T21:10:26.030Z,99351.00
2018-11-07T21:12:56.715Z,99352.00
2018-11-07T21:15:27.092Z,99351.00
2018-11-07T21:17:58.790Z,99347.00
2018-11-07T21:20:29.259Z,99350.00
2018-11-07T21:23:00.465Z,99349.00
2018-11-07T21:25:31.446Z,99360.00
2018-11-07T21:28:01.922Z,99375.00
2018-11-07T21:30:32.324Z,99371.00
2018-11-07T21:33:02.690Z,99373.00
2018-11-07T21:35:33.102Z,99378.00
2018-11-07T21:38:03.414Z,99383.00
2018-11-07T21:40:34.249Z,99379.00
2018-11-07T21:43:05.545Z,99382.00
2018-11-07T21:45:36.444Z,99385.00
2018-11-07T21:48:07.276Z,99389.00
2018-11-07T21:50:38.101Z,99387.00
2018-11-07T21:53:09.365Z,99386.00
2018-11-07T21:55:40.095Z,99399.00
2018-11-07T21:58:10.526Z,99397.00
2018-11-07T22:00:40.931Z,99395.00
2018-11-07T22:03:11.411Z,99398.00
2018-11-07T22:05:41.950Z,99393.00
2018-11-07T22:08:12.234Z,99394.00
2018-11-07T22:10:42.511Z,99395.00
2018-11-07T22:13:12.856Z,99399.00
2018-11-07T22:15:43.023Z,99395.00
2018-11-07T22:18:13.300Z,99401.00
2018-11-07T22:20:43.534Z,99404.00
2018-11-07T22:23:13.794Z,99401.00
2018-11-07T22:25:44.045Z,99399.00
2018-11-07T22:28:14.298Z,99400.00
2018-11-07T22:30:44.541Z,99405.00
2018-11-07T22:33:14.787Z,99409.00
2018-11-07T22:35:45.342Z,99407.00
2018-11-07T22:38:15.590Z,99414.00
2018-11-07T22:40:45.867Z,99416.00
2018-11-07T22:43:16.137Z,99420.00
2018-11-07T22:45:46.377Z,99420.00
2018-11-07T22:48:16.642Z,99420.00
2018-11-07T22:50:46.899Z,99425.00
2018-11-07T22:53:17.164Z,99427.00
2018-11-07T22:55:47.413Z,99426.00
2018-11-07T22:58:17.678Z,99427.00
2018-11-07T23:00:53.348Z,99429.00
2018-11-07T23:03:23.617Z,99430.00
2018-11-07T23:05:53.876Z,99436.00
2018-11-07T23:08:24.215Z,99433.00
2018-11-07T23:10:54.442Z,99431.00
2018-11-07T23:13:24.731Z,99433.00
2018-11-07T23:15:54.983Z,99434.00
2018-11-07T23:18:25.244Z,99434.00
2018-11-07T23:20:55.491Z,99436.00
2018-11-07T23:23:25.855Z,99438.00
2018-11-07T23:25:56.150Z,99442.00
2018-11-07T23:28:26.631Z,99446.00
2018-11-07T23:30:56.887Z,99444.00
2018-11-07T23:33:27.248Z,99448.00
2018-11-07T23:35:57.490Z,99451.00
2018-11-07T23:38:27.767Z,99455.00
2018-11-07T23:40:58.039Z,99454.00
2018-11-07T23:43:28.277Z,99455.00
2018-11-07T23:45:58.549Z,99450.00
2018-11-07T23:48:28.761Z,99465.00
2018-11-07T23:50:59.031Z,99457.00
2018-11-07T23:53:29.262Z,99464.00
2018-11-07T23:55:59.496Z,99461.00
2018-11-07T23:58:29.765Z,99465.00
